Ida — C4CZ2 — position and weather

sailwx.info

Track history (hours):
 
Tides and Currents Weather Stations Pressure Air Temp Water Temp Dewpoint Dewpoint Depression Visibility Wind Speed Wind Dir Waves Ship Positions

Ida

Last reported at 2015-Jan-30 08:32 UTC. Time now 2015-Jan-30 09:29 UTC.
Position N 53°54' E 011°27'.

Length 82 m; draft 3.1 m.

Type: Cargo ship. MMSI: 210319000.

Date/timePositionNaut miles runAvg speedWind from/ knotsBaromVisibWave heightAir tempDewpointWater temp
2015-Jan-30 08:32N 53°54' E 011°27'0 0.0
2015-Jan-30 07:32N 53°54' E 011°27'3 2.6
2015-Jan-30 06:33N 53°56' E 011°25'8 8.0
2015-Jan-30 05:33N 54°04' E 011°26'6 5.8
2015-Jan-30 04:29N 54°10' E 011°25'4 4.7
2015-Jan-30 03:33N 54°15' E 011°25'10 9.9
2015-Jan-30 02:33N 54°25' E 011°23'9 9.1
2015-Jan-30 01:33N 54°33' E 011°16'1010.4
2015-Jan-30 00:33N 54°39' E 011°01'172 8.2
2015-Jan-29 03:27N 57°31' E 010°49'8 8.9
2015-Jan-29 02:33N 57°39' E 010°53'8 8.4
2015-Jan-29 01:33N 57°47' E 010°58'7 6.9
2015-Jan-29 00:33N 57°53' E 011°02'6 6.4
2015-Jan-28 23:33N 57°60' E 011°04'5 5.2
2015-Jan-28 22:33N 58°05' E 011°06'4 3.9
2015-Jan-28 21:33N 58°08' E 011°09'2 2.2
2015-Jan-28 20:33N 58°10' E 011°09'2 1.9
2015-Jan-28 19:33N 58°12' E 011°10'3 2.5
2015-Jan-28 18:33N 58°15' E 011°12'5 4.6
2015-Jan-28 17:34N 58°18' E 011°18'5 4.6
2015-Jan-28 16:33N 58°17' E 011°27'0 0.0
2015-Jan-28 15:33N 58°17' E 011°27'0 0.0
2015-Jan-28 14:33N 58°17' E 011°27'0 0.0
2015-Jan-28 13:33N 58°17' E 011°27'0 0.0
2015-Jan-28 12:33N 58°17' E 011°27'0 0.0
2015-Jan-28 11:33N 58°17' E 011°27'0 0.0
2015-Jan-28 10:30N 58°17' E 011°27'0 0.0
2015-Jan-28 09:12N 58°17' E 011°27'0 0.0
2015-Jan-28 08:33N 58°17' E 011°27'0 0.0
2015-Jan-28 07:33N 58°17' E 011°27'0 0.0
2015-Jan-28 06:33N 58°17' E 011°27'0 0.0
2015-Jan-28 05:33N 58°17' E 011°27'0 0.0
2015-Jan-28 04:30N 58°17' E 011°27'0 0.0
2015-Jan-28 03:33N 58°17' E 011°27'0 0.0
2015-Jan-28 02:33N 58°17' E 011°27'0 0.0
2015-Jan-28 01:33N 58°17' E 011°27'0 0.0
2015-Jan-27 13:18N 58°17' E 011°27'0 0.0
2015-Jan-27 12:33N 58°17' E 011°27'0 0.0
2015-Jan-27 11:33N 58°17' E 011°27'0 0.0
2015-Jan-27 10:33N 58°17' E 011°27'0 0.0
2015-Jan-27 09:33N 58°17' E 011°27'0 0.0
2015-Jan-27 08:27N 58°17' E 011°27'0 0.0
2015-Jan-27 07:33N 58°17' E 011°27'0 0.0
2015-Jan-27 06:27N 58°17' E 011°27'0 0.0
2015-Jan-27 05:33N 58°17' E 011°27'0 0.0
2015-Jan-27 04:33N 58°17' E 011°27'0 0.0
2015-Jan-27 03:30N 58°17' E 011°27'0 0.0
2015-Jan-27 02:33N 58°17' E 011°27'0 0.0
2015-Jan-27 01:33N 58°17' E 011°27'0 0.0
2015-Jan-27 00:33N 58°17' E 011°27'0 0.0
2015-Jan-26 23:33N 58°17' E 011°27'0 0.0
2015-Jan-26 22:33N 58°17' E 011°27'0 0.0
2015-Jan-26 21:33N 58°17' E 011°27'0 0.0
2015-Jan-26 20:33N 58°17' E 011°27'0 0.0
2015-Jan-26 19:33N 58°17' E 011°27'0 0.0
2015-Jan-26 18:33N 58°17' E 011°27'0 0.0
2015-Jan-26 17:33N 58°17' E 011°27'0 0.0
2015-Jan-26 16:33N 58°17' E 011°27'0 0.0
2015-Jan-26 15:33N 58°17' E 011°27'0 0.0
2015-Jan-26 14:33N 58°17' E 011°27'0 0.0
2015-Jan-26 13:33N 58°17' E 011°27'0 0.0
2015-Jan-26 12:33N 58°17' E 011°27'0 0.0
2015-Jan-26 11:33N 58°17' E 011°27'0 0.0
2015-Jan-26 10:33N 58°17' E 011°27'0 0.0
2015-Jan-26 09:30N 58°17' E 011°27'0 0.0
2015-Jan-26 08:33N 58°17' E 011°27'0 0.0
2015-Jan-26 07:33N 58°17' E 011°27'0 0.0
2015-Jan-26 06:33N 58°17' E 011°27'0 0.0
2015-Jan-26 05:33N 58°17' E 011°27'0 0.0
2015-Jan-26 04:33N 58°17' E 011°27'0 0.0
2015-Jan-26 03:33N 58°17' E 011°27'0 0.0
2015-Jan-26 02:33N 58°17' E 011°27'0 0.0
2015-Jan-26 01:33N 58°17' E 011°27'0 0.0
2015-Jan-26 00:33N 58°17' E 011°27'0 0.0
2015-Jan-25 23:33N 58°17' E 011°27'0 0.0
2015-Jan-25 22:30N 58°17' E 011°27'0 0.0
2015-Jan-25 21:30N 58°17' E 011°27'0 0.0
2015-Jan-25 20:33N 58°17' E 011°27'0 0.0
2015-Jan-25 19:33N 58°17' E 011°27'0 0.0
2015-Jan-25 18:33N 58°17' E 011°27'0 0.0
2015-Jan-25 17:33N 58°17' E 011°27'0 0.0
2015-Jan-25 16:33N 58°17' E 011°27'0 0.0
2015-Jan-25 15:33N 58°17' E 011°27'0 0.0
2015-Jan-25 14:33N 58°17' E 011°27'0 0.0
2015-Jan-25 13:33N 58°17' E 011°27'0 0.0
2015-Jan-25 12:33N 58°17' E 011°27'0 0.0
2015-Jan-25 11:33N 58°17' E 011°27'0 0.0
2015-Jan-25 10:33N 58°17' E 011°27'0 0.0
2015-Jan-25 09:33N 58°17' E 011°27'0 0.0
2015-Jan-25 08:33N 58°17' E 011°27'0 0.0
2015-Jan-25 07:33N 58°17' E 011°27'0 0.0
2015-Jan-25 06:33N 58°17' E 011°27'0 0.0
2015-Jan-25 05:30N 58°17' E 011°27'0 0.0
2015-Jan-25 04:33N 58°17' E 011°27'0 0.0
2015-Jan-25 03:33N 58°17' E 011°27'0 0.0
2015-Jan-25 02:30N 58°17' E 011°27'0 0.0
2015-Jan-25 01:33N 58°17' E 011°27'0 0.0
2015-Jan-25 00:33N 58°17' E 011°27'0 0.0
2015-Jan-24 23:33N 58°17' E 011°27'0 0.0
2015-Jan-24 22:33N 58°17' E 011°27'0 0.0
2015-Jan-24 21:33N 58°17' E 011°27'0 0.0
2015-Jan-24 20:33N 58°17' E 011°27'0 0.0
2015-Jan-24 19:30N 58°17' E 011°27'0 0.0
2015-Jan-24 18:33N 58°17' E 011°27'0 0.0
2015-Jan-24 17:33N 58°17' E 011°27'0 0.0
2015-Jan-24 16:33N 58°17' E 011°27'0 0.0
2015-Jan-24 15:33N 58°17' E 011°27'0 0.0
2015-Jan-24 14:33N 58°17' E 011°27'0 0.0
2015-Jan-24 13:33N 58°17' E 011°27'0 0.0
2015-Jan-24 12:33N 58°17' E 011°27'0 0.0
2015-Jan-24 11:30N 58°17' E 011°27'0 0.0
2015-Jan-24 10:33N 58°17' E 011°27'0 0.0
2015-Jan-24 09:33N 58°17' E 011°27'0 0.0
2015-Jan-24 08:33N 58°17' E 011°27'3 3.1
2015-Jan-24 07:33N 58°16' E 011°21'8 8.4
2015-Jan-24 06:33N 58°13' E 011°07'8 8.3
2015-Jan-24 05:33N 58°08' E 010°54'9 8.5
2015-Jan-24 04:33N 58°03' E 010°41'9 9.0
2015-Jan-24 03:33N 57°58' E 010°27'69 9.5
2015-Jan-23 20:14N 57°17' E 008°42'7 9.4
2015-Jan-23 19:33N 57°13' E 008°32'110 9.2
2015-Jan-23 07:33N 55°33' E 007°09'4 3.6
2015-Jan-23 06:31N 55°30' E 007°07'116 7.3
2015-Jan-22 14:31N 53°35' E 006°38'1212.1
2015-Jan-22 13:33N 53°27' E 006°53'9 9.4
2015-Jan-22 12:34N 53°19' E 007°00'3 2.7
2015-Jan-22 11:32N 53°20' E 006°56'0 0.0
2015-Jan-22 10:32N 53°20' E 006°56'0 0.0
2015-Jan-22 09:32N 53°20' E 006°56'0 0.0
2015-Jan-22 08:32N 53°20' E 006°56'0 0.0
2015-Jan-22 07:32N 53°20' E 006°56'0 0.0
2015-Jan-22 06:32N 53°20' E 006°56'0 0.0
2015-Jan-22 05:32N 53°20' E 006°56'0 0.0
2015-Jan-22 04:32N 53°20' E 006°56'0 0.0
2015-Jan-22 03:32N 53°20' E 006°56'0 0.0
2015-Jan-22 02:32N 53°20' E 006°56'0 0.0
2015-Jan-22 01:32N 53°20' E 006°56'0 0.0
2015-Jan-22 00:32N 53°20' E 006°56'0 0.0
2015-Jan-21 23:32N 53°20' E 006°56'0 0.0
2015-Jan-21 22:50N 53°20' E 006°56'0 0.0
2015-Jan-21 22:44N 53°20' E 006°56'0 0.0
2015-Jan-21 22:32N 53°20' E 006°56'0 0.0
2015-Jan-21 21:32N 53°20' E 006°56'0 0.0
2015-Jan-21 20:32N 53°20' E 006°56'0 0.0
2015-Jan-21 19:32N 53°20' E 006°56'0 0.0
2015-Jan-21 18:32N 53°20' E 006°56'0 0.0
2015-Jan-21 17:32N 53°20' E 006°56'0 0.0
2015-Jan-21 16:32N 53°20' E 006°56'0 0.0
2015-Jan-21 15:32N 53°20' E 006°56'0 0.0
2015-Jan-21 14:32N 53°20' E 006°56'0 0.0
2015-Jan-21 13:32N 53°20' E 006°56'0 0.0
2015-Jan-21 12:32N 53°20' E 006°56'0 0.0
2015-Jan-21 11:32N 53°20' E 006°56'0 0.0
2015-Jan-21 10:32N 53°20' E 006°56'0 0.0
2015-Jan-21 09:32N 53°20' E 006°56'0 0.0
2015-Jan-21 08:32N 53°20' E 006°56'0 0.0
2015-Jan-21 07:32N 53°20' E 006°56'0 0.0
2015-Jan-21 06:32N 53°20' E 006°56'0 0.0
2015-Jan-21 05:32N 53°20' E 006°56'0 0.0
2015-Jan-21 04:32N 53°20' E 006°56'0 0.0
2015-Jan-21 03:32N 53°20' E 006°56'0 0.0
2015-Jan-21 02:32N 53°20' E 006°56'0 0.0
2015-Jan-21 01:32N 53°20' E 006°56'0 0.0
2015-Jan-21 00:32N 53°20' E 006°56'0 0.0
2015-Jan-20 23:32N 53°20' E 006°56'0 0.0
2015-Jan-20 22:32N 53°20' E 006°56'0 0.0
2015-Jan-20 21:32N 53°20' E 006°56'0 0.0
2015-Jan-20 20:32N 53°20' E 006°56'0 0.0
2015-Jan-20 19:32N 53°20' E 006°56'0 0.0
2015-Jan-20 18:32N 53°20' E 006°56'0 0.0
2015-Jan-20 17:32N 53°20' E 006°56'0 0.0
2015-Jan-20 16:32N 53°20' E 006°56'0 0.0
2015-Jan-20 15:32N 53°20' E 006°56'0 0.0
2015-Jan-20 14:32N 53°20' E 006°56'0 0.0
2015-Jan-20 13:32N 53°20' E 006°56'0 0.0
2015-Jan-20 12:32N 53°20' E 006°56'0 0.0
2015-Jan-20 11:32N 53°20' E 006°56'0 0.0
2015-Jan-20 10:32N 53°20' E 006°56'0 0.2
2015-Jan-20 09:33N 53°20' E 006°56'5 5.1
2015-Jan-20 08:33N 53°25' E 006°56'  
Track history (hours):
 
Tides and Currents Weather Stations Pressure Air Temp Water Temp Dewpoint Dewpoint Depression Visibility Wind Speed Wind Dir Waves Ship Positions

Ida

Last reported at 2015-Jan-30 08:32 UTC. Time now 2015-Jan-30 09:29 UTC.
Position N 53°54' E 011°27'.

Length 82 m; draft 3.1 m.

Type: Cargo ship. MMSI: 210319000.

Date/timePositionNaut miles runAvg speedWind from/ knotsBaromVisibWave heightAir tempDewpointWater temp
2015-Jan-30 08:32N 53°54' E 011°27'0 0.0
2015-Jan-30 07:32N 53°54' E 011°27'3 2.6
2015-Jan-30 06:33N 53°56' E 011°25'8 8.0
2015-Jan-30 05:33N 54°04' E 011°26'6 5.8
2015-Jan-30 04:29N 54°10' E 011°25'4 4.7
2015-Jan-30 03:33N 54°15' E 011°25'10 9.9
2015-Jan-30 02:33N 54°25' E 011°23'9 9.1
2015-Jan-30 01:33N 54°33' E 011°16'1010.4
2015-Jan-30 00:33N 54°39' E 011°01'172 8.2
2015-Jan-29 03:27N 57°31' E 010°49'8 8.9
2015-Jan-29 02:33N 57°39' E 010°53'8 8.4
2015-Jan-29 01:33N 57°47' E 010°58'7 6.9
2015-Jan-29 00:33N 57°53' E 011°02'6 6.4
2015-Jan-28 23:33N 57°60' E 011°04'5 5.2
2015-Jan-28 22:33N 58°05' E 011°06'4 3.9
2015-Jan-28 21:33N 58°08' E 011°09'2 2.2
2015-Jan-28 20:33N 58°10' E 011°09'2 1.9
2015-Jan-28 19:33N 58°12' E 011°10'3 2.5
2015-Jan-28 18:33N 58°15' E 011°12'5 4.6
2015-Jan-28 17:34N 58°18' E 011°18'5 4.6
2015-Jan-28 16:33N 58°17' E 011°27'0 0.0
2015-Jan-28 15:33N 58°17' E 011°27'0 0.0
2015-Jan-28 14:33N 58°17' E 011°27'0 0.0
2015-Jan-28 13:33N 58°17' E 011°27'0 0.0
2015-Jan-28 12:33N 58°17' E 011°27'0 0.0
2015-Jan-28 11:33N 58°17' E 011°27'0 0.0
2015-Jan-28 10:30N 58°17' E 011°27'0 0.0
2015-Jan-28 09:12N 58°17' E 011°27'0 0.0
2015-Jan-28 08:33N 58°17' E 011°27'0 0.0
2015-Jan-28 07:33N 58°17' E 011°27'0 0.0
2015-Jan-28 06:33N 58°17' E 011°27'0 0.0
2015-Jan-28 05:33N 58°17' E 011°27'0 0.0
2015-Jan-28 04:30N 58°17' E 011°27'0 0.0
2015-Jan-28 03:33N 58°17' E 011°27'0 0.0
2015-Jan-28 02:33N 58°17' E 011°27'0 0.0
2015-Jan-28 01:33N 58°17' E 011°27'0 0.0
2015-Jan-27 13:18N 58°17' E 011°27'0 0.0
2015-Jan-27 12:33N 58°17' E 011°27'0 0.0
2015-Jan-27 11:33N 58°17' E 011°27'0 0.0
2015-Jan-27 10:33N 58°17' E 011°27'0 0.0
2015-Jan-27 09:33N 58°17' E 011°27'0 0.0
2015-Jan-27 08:27N 58°17' E 011°27'0 0.0
2015-Jan-27 07:33N 58°17' E 011°27'0 0.0
2015-Jan-27 06:27N 58°17' E 011°27'0 0.0
2015-Jan-27 05:33N 58°17' E 011°27'0 0.0
2015-Jan-27 04:33N 58°17' E 011°27'0 0.0
2015-Jan-27 03:30N 58°17' E 011°27'0 0.0
2015-Jan-27 02:33N 58°17' E 011°27'0 0.0
2015-Jan-27 01:33N 58°17' E 011°27'0 0.0
2015-Jan-27 00:33N 58°17' E 011°27'0 0.0
2015-Jan-26 23:33N 58°17' E 011°27'0 0.0
2015-Jan-26 22:33N 58°17' E 011°27'0 0.0
2015-Jan-26 21:33N 58°17' E 011°27'0 0.0
2015-Jan-26 20:33N 58°17' E 011°27'0 0.0
2015-Jan-26 19:33N 58°17' E 011°27'0 0.0
2015-Jan-26 18:33N 58°17' E 011°27'0 0.0
2015-Jan-26 17:33N 58°17' E 011°27'0 0.0
2015-Jan-26 16:33N 58°17' E 011°27'0 0.0
2015-Jan-26 15:33N 58°17' E 011°27'0 0.0
2015-Jan-26 14:33N 58°17' E 011°27'0 0.0
2015-Jan-26 13:33N 58°17' E 011°27'0 0.0
2015-Jan-26 12:33N 58°17' E 011°27'0 0.0
2015-Jan-26 11:33N 58°17' E 011°27'0 0.0
2015-Jan-26 10:33N 58°17' E 011°27'0 0.0
2015-Jan-26 09:30N 58°17' E 011°27'0 0.0
2015-Jan-26 08:33N 58°17' E 011°27'0 0.0
2015-Jan-26 07:33N 58°17' E 011°27'0 0.0
2015-Jan-26 06:33N 58°17' E 011°27'0 0.0
2015-Jan-26 05:33N 58°17' E 011°27'0 0.0
2015-Jan-26 04:33N 58°17' E 011°27'0 0.0
2015-Jan-26 03:33N 58°17' E 011°27'0 0.0
2015-Jan-26 02:33N 58°17' E 011°27'0 0.0
2015-Jan-26 01:33N 58°17' E 011°27'0 0.0
2015-Jan-26 00:33N 58°17' E 011°27'0 0.0
2015-Jan-25 23:33N 58°17' E 011°27'0 0.0
2015-Jan-25 22:30N 58°17' E 011°27'0 0.0
2015-Jan-25 21:30N 58°17' E 011°27'0 0.0
2015-Jan-25 20:33N 58°17' E 011°27'0 0.0
2015-Jan-25 19:33N 58°17' E 011°27'0 0.0
2015-Jan-25 18:33N 58°17' E 011°27'0 0.0
2015-Jan-25 17:33N 58°17' E 011°27'0 0.0
2015-Jan-25 16:33N 58°17' E 011°27'0 0.0
2015-Jan-25 15:33N 58°17' E 011°27'0 0.0
2015-Jan-25 14:33N 58°17' E 011°27'0 0.0
2015-Jan-25 13:33N 58°17' E 011°27'0 0.0
2015-Jan-25 12:33N 58°17' E 011°27'0 0.0
2015-Jan-25 11:33N 58°17' E 011°27'0 0.0
2015-Jan-25 10:33N 58°17' E 011°27'0 0.0
2015-Jan-25 09:33N 58°17' E 011°27'0 0.0
2015-Jan-25 08:33N 58°17' E 011°27'0 0.0
2015-Jan-25 07:33N 58°17' E 011°27'0 0.0
2015-Jan-25 06:33N 58°17' E 011°27'0 0.0
2015-Jan-25 05:30N 58°17' E 011°27'0 0.0
2015-Jan-25 04:33N 58°17' E 011°27'0 0.0
2015-Jan-25 03:33N 58°17' E 011°27'0 0.0
2015-Jan-25 02:30N 58°17' E 011°27'0 0.0
2015-Jan-25 01:33N 58°17' E 011°27'0 0.0
2015-Jan-25 00:33N 58°17' E 011°27'0 0.0
2015-Jan-24 23:33N 58°17' E 011°27'0 0.0
2015-Jan-24 22:33N 58°17' E 011°27'0 0.0
2015-Jan-24 21:33N 58°17' E 011°27'0 0.0
2015-Jan-24 20:33N 58°17' E 011°27'0 0.0
2015-Jan-24 19:30N 58°17' E 011°27'0 0.0
2015-Jan-24 18:33N 58°17' E 011°27'0 0.0
2015-Jan-24 17:33N 58°17' E 011°27'0 0.0
2015-Jan-24 16:33N 58°17' E 011°27'0 0.0
2015-Jan-24 15:33N 58°17' E 011°27'0 0.0
2015-Jan-24 14:33N 58°17' E 011°27'0 0.0
2015-Jan-24 13:33N 58°17' E 011°27'0 0.0
2015-Jan-24 12:33N 58°17' E 011°27'0 0.0
2015-Jan-24 11:30N 58°17' E 011°27'0 0.0
2015-Jan-24 10:33N 58°17' E 011°27'0 0.0
2015-Jan-24 09:33N 58°17' E 011°27'0 0.0
2015-Jan-24 08:33N 58°17' E 011°27'3 3.1
2015-Jan-24 07:33N 58°16' E 011°21'8 8.4
2015-Jan-24 06:33N 58°13' E 011°07'8 8.3
2015-Jan-24 05:33N 58°08' E 010°54'9 8.5
2015-Jan-24 04:33N 58°03' E 010°41'9 9.0
2015-Jan-24 03:33N 57°58' E 010°27'69 9.5
2015-Jan-23 20:14N 57°17' E 008°42'7 9.4
2015-Jan-23 19:33N 57°13' E 008°32'110 9.2
2015-Jan-23 07:33N 55°33' E 007°09'4 3.6
2015-Jan-23 06:31N 55°30' E 007°07'116 7.3
2015-Jan-22 14:31N 53°35' E 006°38'1212.1
2015-Jan-22 13:33N 53°27' E 006°53'9 9.4
2015-Jan-22 12:34N 53°19' E 007°00'3 2.7
2015-Jan-22 11:32N 53°20' E 006°56'0 0.0
2015-Jan-22 10:32N 53°20' E 006°56'0 0.0
2015-Jan-22 09:32N 53°20' E 006°56'0 0.0
2015-Jan-22 08:32N 53°20' E 006°56'0 0.0
2015-Jan-22 07:32N 53°20' E 006°56'0 0.0
2015-Jan-22 06:32N 53°20' E 006°56'0 0.0
2015-Jan-22 05:32N 53°20' E 006°56'0 0.0
2015-Jan-22 04:32N 53°20' E 006°56'0 0.0
2015-Jan-22 03:32N 53°20' E 006°56'0 0.0
2015-Jan-22 02:32N 53°20' E 006°56'0 0.0
2015-Jan-22 01:32N 53°20' E 006°56'0 0.0
2015-Jan-22 00:32N 53°20' E 006°56'0 0.0
2015-Jan-21 23:32N 53°20' E 006°56'0 0.0
2015-Jan-21 22:50N 53°20' E 006°56'0 0.0
2015-Jan-21 22:44N 53°20' E 006°56'0 0.0
2015-Jan-21 22:32N 53°20' E 006°56'0 0.0
2015-Jan-21 21:32N 53°20' E 006°56'0 0.0
2015-Jan-21 20:32N 53°20' E 006°56'0 0.0
2015-Jan-21 19:32N 53°20' E 006°56'0 0.0
2015-Jan-21 18:32N 53°20' E 006°56'0 0.0
2015-Jan-21 17:32N 53°20' E 006°56'0 0.0
2015-Jan-21 16:32N 53°20' E 006°56'0 0.0
2015-Jan-21 15:32N 53°20' E 006°56'0 0.0
2015-Jan-21 14:32N 53°20' E 006°56'0 0.0
2015-Jan-21 13:32N 53°20' E 006°56'0 0.0
2015-Jan-21 12:32N 53°20' E 006°56'0 0.0
2015-Jan-21 11:32N 53°20' E 006°56'0 0.0
2015-Jan-21 10:32N 53°20' E 006°56'0 0.0
2015-Jan-21 09:32N 53°20' E 006°56'0 0.0
2015-Jan-21 08:32N 53°20' E 006°56'0 0.0
2015-Jan-21 07:32N 53°20' E 006°56'0 0.0
2015-Jan-21 06:32N 53°20' E 006°56'0 0.0
2015-Jan-21 05:32N 53°20' E 006°56'0 0.0
2015-Jan-21 04:32N 53°20' E 006°56'0 0.0
2015-Jan-21 03:32N 53°20' E 006°56'0 0.0
2015-Jan-21 02:32N 53°20' E 006°56'0 0.0
2015-Jan-21 01:32N 53°20' E 006°56'0 0.0
2015-Jan-21 00:32N 53°20' E 006°56'0 0.0
2015-Jan-20 23:32N 53°20' E 006°56'0 0.0
2015-Jan-20 22:32N 53°20' E 006°56'0 0.0
2015-Jan-20 21:32N 53°20' E 006°56'0 0.0
2015-Jan-20 20:32N 53°20' E 006°56'0 0.0
2015-Jan-20 19:32N 53°20' E 006°56'0 0.0
2015-Jan-20 18:32N 53°20' E 006°56'0 0.0
2015-Jan-20 17:32N 53°20' E 006°56'0 0.0
2015-Jan-20 16:32N 53°20' E 006°56'0 0.0
2015-Jan-20 15:32N 53°20' E 006°56'0 0.0
2015-Jan-20 14:32N 53°20' E 006°56'0 0.0
2015-Jan-20 13:32N 53°20' E 006°56'0 0.0
2015-Jan-20 12:32N 53°20' E 006°56'0 0.0
2015-Jan-20 11:32N 53°20' E 006°56'0 0.0
2015-Jan-20 10:32N 53°20' E 006°56'0 0.2
2015-Jan-20 09:33N 53°20' E 006°56'5 5.1
2015-Jan-20 08:33N 53°25' E 006°56'  

Dump ship's entire track history